createdAt,value
2017-08-06T00:00:41.278Z,2.43
2017-08-06T00:03:08.738Z,2.40
2017-08-06T00:05:36.197Z,2.70
2017-08-06T00:08:03.652Z,1.80
2017-08-06T00:10:31.109Z,2.37
2017-08-06T00:12:58.684Z,1.90
2017-08-06T00:15:26.231Z,2.00
2017-08-06T00:17:53.669Z,2.00
2017-08-06T00:20:21.540Z,1.97
2017-08-06T00:22:49.114Z,2.23
2017-08-06T00:25:16.574Z,2.03
2017-08-06T00:27:44.029Z,3.10
2017-08-06T00:30:11.483Z,2.17
2017-08-06T00:32:38.941Z,1.93
2017-08-06T00:35:06.390Z,1.93
2017-08-06T00:37:33.857Z,1.93
2017-08-06T00:40:01.309Z,2.17
2017-08-06T00:42:28.778Z,2.23
2017-08-06T00:44:56.225Z,2.17
2017-08-06T00:47:23.682Z,2.57
2017-08-06T00:49:51.133Z,2.73
2017-08-06T00:52:18.618Z,2.43
2017-08-06T00:54:46.831Z,1.97
2017-08-06T00:57:14.279Z,2.20
2017-08-06T00:59:41.743Z,2.13
2017-08-06T01:02:09.203Z,2.13
2017-08-06T01:04:36.675Z,2.70
2017-08-06T01:07:04.141Z,2.70
2017-08-06T01:09:31.598Z,2.87
2017-08-06T01:11:59.050Z,2.90
2017-08-06T01:14:26.513Z,2.90
2017-08-06T01:16:53.961Z,2.80
2017-08-06T01:19:21.426Z,2.50
2017-08-06T01:21:48.980Z,2.43
2017-08-06T01:24:16.547Z,2.53
2017-08-06T01:26:43.995Z,2.83
2017-08-06T01:29:11.554Z,2.73
2017-08-06T01:31:39.009Z,3.73
2017-08-06T01:34:06.565Z,3.47
2017-08-06T01:36:34.021Z,3.23
2017-08-06T01:39:01.472Z,2.83
2017-08-06T01:41:28.930Z,2.67
2017-08-06T01:43:56.378Z,2.93
2017-08-06T01:46:23.851Z,3.13
2017-08-06T01:48:51.321Z,2.97
2017-08-06T01:51:18.769Z,2.70
2017-08-06T01:53:46.221Z,3.63
2017-08-06T01:56:13.782Z,2.80
2017-08-06T01:58:41.229Z,3.23
2017-08-06T02:01:08.676Z,3.30
2017-08-06T02:03:36.149Z,3.57
2017-08-06T02:06:03.602Z,3.30
2017-08-06T02:08:31.054Z,2.57
2017-08-06T02:10:58.499Z,3.03
2017-08-06T02:13:25.969Z,2.77
2017-08-06T02:15:53.422Z,2.40
2017-08-06T02:18:20.869Z,2.43
2017-08-06T02:20:48.325Z,2.70
2017-08-06T02:23:15.793Z,2.87
2017-08-06T02:25:43.361Z,2.57
2017-08-06T02:28:10.835Z,2.67
2017-08-06T02:30:38.277Z,2.37
2017-08-06T02:33:05.750Z,2.73
2017-08-06T02:35:33.206Z,2.50
2017-08-06T02:38:01.471Z,2.40
2017-08-06T02:40:28.933Z,2.80
2017-08-06T02:42:57.146Z,2.00
2017-08-06T02:45:24.602Z,2.50
2017-08-06T02:47:52.064Z,2.23
2017-08-06T02:50:19.526Z,2.30
2017-08-06T02:52:46.993Z,3.57
2017-08-06T02:55:14.455Z,3.30
2017-08-06T02:57:41.910Z,3.07
2017-08-06T03:00:09.370Z,3.10
2017-08-06T03:02:36.826Z,3.90
2017-08-06T03:05:04.388Z,3.50
2017-08-06T03:07:31.835Z,3.50
2017-08-06T03:09:59.285Z,3.87
2017-08-06T03:12:26.750Z,3.67
2017-08-06T03:14:54.221Z,3.73
2017-08-06T03:17:21.795Z,3.70
2017-08-06T03:19:49.258Z,3.63
2017-08-06T03:22:17.515Z,3.57
2017-08-06T03:24:44.972Z,3.77
2017-08-06T03:27:12.430Z,3.90
2017-08-06T03:29:39.892Z,3.83
2017-08-06T03:32:07.354Z,3.50
2017-08-06T03:34:34.805Z,3.80
2017-08-06T03:37:02.261Z,3.50
2017-08-06T03:39:29.718Z,3.77
2017-08-06T03:41:57.400Z,4.13
2017-08-06T03:44:24.866Z,4.10
2017-08-06T03:46:52.321Z,4.20
2017-08-06T03:49:19.838Z,3.70
2017-08-06T03:51:47.291Z,3.77
2017-08-06T03:54:14.747Z,3.57
2017-08-06T03:56:42.193Z,3.73
2017-08-06T03:59:09.653Z,4.10
2017-08-06T04:01:37.126Z,4.10
2017-08-06T04:04:04.569Z,4.00
2017-08-06T04:06:32.022Z,3.63
2017-08-06T04:08:59.600Z,3.90
2017-08-06T04:11:27.053Z,3.87
2017-08-06T04:13:54.614Z,4.70
2017-08-06T04:16:22.054Z,4.53
2017-08-06T04:18:49.522Z,3.93
2017-08-06T04:21:16.988Z,3.40
2017-08-06T04:23:44.530Z,3.87
2017-08-06T04:26:11.985Z,3.90
2017-08-06T04:28:39.438Z,3.10
2017-08-06T04:31:07.001Z,4.77
2017-08-06T04:33:34.449Z,3.80
2017-08-06T04:36:01.915Z,4.50
2017-08-06T04:38:29.357Z,4.10
2017-08-06T04:40:56.827Z,3.40
2017-08-06T04:43:24.278Z,3.47
2017-08-06T04:45:51.742Z,3.87
2017-08-06T04:48:19.198Z,3.20
2017-08-06T04:50:46.666Z,3.90
2017-08-06T04:53:14.117Z,4.23
2017-08-06T04:55:41.568Z,4.10
2017-08-06T04:58:09.022Z,4.07
2017-08-06T05:00:36.589Z,3.87
2017-08-06T05:03:04.066Z,3.97
2017-08-06T05:05:31.512Z,3.50
2017-08-06T05:07:58.970Z,3.60
2017-08-06T05:10:26.527Z,4.20
2017-08-06T05:12:54.801Z,3.50
2017-08-06T05:15:22.254Z,4.40
2017-08-06T05:17:49.712Z,4.40
2017-08-06T05:20:17.181Z,4.93
2017-08-06T05:22:45.449Z,4.20
2017-08-06T05:25:12.901Z,3.93
2017-08-06T05:27:40.362Z,4.50
2017-08-06T05:30:07.825Z,4.20
2017-08-06T05:32:35.276Z,4.03
2017-08-06T05:35:02.721Z,3.40
2017-08-06T05:37:30.268Z,3.50
2017-08-06T05:39:57.835Z,3.50
2017-08-06T05:42:25.285Z,3.00
2017-08-06T05:44:52.733Z,3.93
2017-08-06T05:47:20.207Z,2.90
2017-08-06T05:49:47.665Z,3.07
2017-08-06T05:52:15.122Z,2.30
2017-08-06T05:54:42.576Z,2.50
2017-08-06T05:57:10.135Z,2.50
2017-08-06T05:59:37.583Z,2.30
2017-08-06T06:02:05.046Z,2.47
2017-08-06T06:04:32.491Z,2.00
2017-08-06T06:07:00.058Z,2.53
2017-08-06T06:09:27.518Z,2.03
2017-08-06T06:11:54.979Z,3.00
2017-08-06T06:14:22.436Z,2.63
2017-08-06T06:16:49.892Z,2.73
2017-08-06T06:19:17.345Z,2.10
2017-08-06T06:21:44.806Z,1.97
2017-08-06T06:24:12.263Z,1.73
2017-08-06T06:26:39.823Z,1.87
2017-08-06T06:29:07.283Z,2.50
2017-08-06T06:31:34.822Z,1.90
2017-08-06T06:34:08.287Z,2.20
2017-08-06T06:36:39.125Z,1.83
2017-08-06T06:39:06.630Z,2.10
2017-08-06T06:41:34.169Z,2.00
2017-08-06T06:44:01.805Z,2.13
2017-08-06T06:46:29.261Z,2.10
2017-08-06T06:48:56.746Z,2.40
2017-08-06T06:51:24.310Z,2.60
2017-08-06T06:53:51.864Z,2.33
2017-08-06T06:56:19.421Z,2.90
2017-08-06T06:58:46.983Z,2.10
2017-08-06T07:01:14.451Z,2.80
2017-08-06T07:03:41.906Z,2.40
2017-08-06T07:06:09.353Z,2.90
2017-08-06T07:08:36.925Z,2.43
2017-08-06T07:11:04.377Z,2.13
2017-08-06T07:13:31.837Z,1.90
2017-08-06T07:15:59.289Z,3.23
2017-08-06T07:18:26.841Z,2.27
2017-08-06T07:20:54.290Z,1.87
2017-08-06T07:23:21.739Z,2.53
2017-08-06T07:25:49.189Z,2.00
2017-08-06T07:28:16.650Z,2.17
2017-08-06T07:30:44.105Z,2.40
2017-08-06T07:33:11.565Z,2.33
2017-08-06T07:35:39.022Z,2.03
2017-08-06T07:38:06.489Z,2.27
2017-08-06T07:40:33.959Z,2.17
2017-08-06T07:43:01.399Z,2.37
2017-08-06T07:45:28.868Z,2.43
2017-08-06T07:47:56.317Z,2.00
2017-08-06T07:50:23.770Z,2.10
2017-08-06T07:52:51.217Z,2.23
2017-08-06T07:55:18.681Z,2.77
2017-08-06T07:57:46.131Z,2.80
2017-08-06T08:00:13.618Z,1.90
2017-08-06T08:02:41.057Z,2.40
2017-08-06T08:05:08.510Z,1.90
2017-08-06T08:07:36.070Z,2.03
2017-08-06T08:10:03.517Z,1.87
2017-08-06T08:12:30.978Z,1.93
2017-08-06T08:14:58.425Z,2.30
2017-08-06T08:17:25.897Z,2.40
2017-08-06T08:19:53.367Z,2.00
2017-08-06T08:22:20.842Z,2.20
2017-08-06T08:24:49.070Z,2.30
2017-08-06T08:27:16.567Z,2.00
2017-08-06T08:29:44.029Z,1.97
2017-08-06T08:32:11.471Z,2.13
2017-08-06T08:34:38.937Z,2.00
2017-08-06T08:37:06.382Z,2.57
2017-08-06T08:39:33.836Z,1.77
2017-08-06T08:42:01.281Z,1.80
2017-08-06T08:44:28.750Z,1.77
2017-08-06T08:46:56.197Z,2.17
2017-08-06T08:49:23.642Z,2.20
2017-08-06T08:51:51.098Z,3.23
2017-08-06T08:54:18.556Z,1.80
2017-08-06T08:56:46.022Z,2.20
2017-08-06T08:59:13.489Z,2.20
2017-08-06T09:01:40.941Z,2.03
2017-08-06T09:04:08.390Z,2.10
2017-08-06T09:06:35.949Z,2.00
2017-08-06T09:09:03.393Z,1.50
2017-08-06T09:11:30.856Z,2.00
2017-08-06T09:13:58.301Z,1.80
2017-08-06T09:16:25.765Z,1.80
2017-08-06T09:18:53.225Z,1.90
2017-08-06T09:21:20.698Z,1.80
2017-08-06T09:23:48.151Z,1.50
2017-08-06T09:26:15.598Z,1.90
2017-08-06T09:28:43.061Z,2.00
2017-08-06T09:31:10.505Z,1.70
2017-08-06T09:33:37.953Z,1.50
2017-08-06T09:36:05.405Z,1.40
2017-08-06T09:38:32.853Z,1.10
2017-08-06T09:41:00.355Z,1.60
2017-08-06T09:43:27.802Z,1.40
2017-08-06T09:45:55.254Z,1.40
2017-08-06T09:48:22.724Z,1.40
2017-08-06T09:50:50.180Z,1.40
2017-08-06T09:53:17.621Z,1.77
2017-08-06T09:55:45.177Z,1.30
2017-08-06T09:58:12.630Z,1.43
2017-08-06T10:00:40.156Z,1.30
2017-08-06T10:03:07.649Z,1.27
2017-08-06T10:05:35.139Z,1.40
2017-08-06T10:08:02.587Z,1.50
2017-08-06T10:10:30.038Z,1.23
2017-08-06T10:12:57.584Z,1.33
2017-08-06T10:15:25.151Z,1.17
2017-08-06T10:17:52.612Z,1.87
2017-08-06T10:20:20.073Z,1.50
2017-08-06T10:22:47.516Z,1.30
2017-08-06T10:25:15.070Z,1.43
2017-08-06T10:27:42.526Z,1.40
2017-08-06T10:30:09.973Z,1.33
2017-08-06T10:32:37.433Z,1.33
2017-08-06T10:35:04.870Z,1.53
2017-08-06T10:37:32.325Z,1.10
2017-08-06T10:39:59.781Z,1.50
2017-08-06T10:42:27.234Z,1.43
2017-08-06T10:44:54.723Z,1.27
2017-08-06T10:47:22.178Z,1.40
2017-08-06T10:49:49.613Z,1.47
2017-08-06T10:52:17.082Z,1.20
2017-08-06T10:54:44.538Z,1.47
2017-08-06T10:57:11.993Z,1.43
2017-08-06T10:59:39.457Z,1.10
2017-08-06T11:02:06.903Z,1.30
2017-08-06T11:04:34.378Z,1.30
2017-08-06T11:07:01.822Z,1.53
2017-08-06T11:09:29.290Z,1.40
2017-08-06T11:11:56.746Z,1.50
2017-08-06T11:14:24.208Z,1.30
2017-08-06T11:16:51.666Z,1.30
2017-08-06T11:19:19.122Z,1.30
2017-08-06T11:21:46.582Z,1.40
2017-08-06T11:24:14.050Z,1.23
2017-08-06T11:26:42.274Z,1.50
2017-08-06T11:29:09.763Z,1.43
2017-08-06T11:31:37.313Z,1.30
2017-08-06T11:34:04.761Z,1.60
2017-08-06T11:36:32.222Z,1.53
2017-08-06T11:38:59.677Z,1.30
2017-08-06T11:41:27.135Z,1.30
2017-08-06T11:43:54.596Z,1.30
2017-08-06T11:46:22.049Z,1.70
2017-08-06T11:48:49.495Z,1.67
2017-08-06T11:51:16.951Z,1.30
2017-08-06T11:53:44.434Z,1.50
2017-08-06T11:56:11.903Z,1.53
2017-08-06T11:58:39.349Z,1.47
2017-08-06T12:01:06.801Z,1.40
2017-08-06T12:03:34.257Z,1.47
2017-08-06T12:06:01.805Z,1.20
2017-08-06T12:08:29.266Z,1.67
2017-08-06T12:10:56.716Z,1.37
2017-08-06T12:13:24.165Z,1.20
2017-08-06T12:15:51.622Z,1.40
2017-08-06T12:18:19.073Z,1.57
2017-08-06T12:20:46.537Z,1.40
2017-08-06T12:23:14.008Z,1.37
2017-08-06T12:25:41.453Z,1.63
2017-08-06T12:28:09.032Z,1.30
2017-08-06T12:30:36.478Z,1.30
2017-08-06T12:33:04.031Z,1.20
2017-08-06T12:35:31.469Z,1.27
2017-08-06T12:37:58.914Z,1.20
2017-08-06T12:40:26.401Z,1.40
2017-08-06T12:42:53.841Z,1.30
2017-08-06T12:45:21.332Z,1.30
2017-08-06T12:47:48.777Z,1.30
2017-08-06T12:50:16.237Z,1.33
2017-08-06T12:52:43.681Z,1.57
2017-08-06T12:55:11.246Z,1.20
2017-08-06T12:57:38.700Z,1.30
2017-08-06T13:00:06.177Z,1.47
2017-08-06T13:02:33.613Z,1.30
2017-08-06T13:05:01.077Z,1.80
2017-08-06T13:07:28.521Z,1.40
2017-08-06T13:09:55.977Z,1.30
2017-08-06T13:12:23.434Z,1.30
2017-08-06T13:14:50.886Z,1.30
2017-08-06T13:17:18.341Z,1.33
2017-08-06T13:19:45.805Z,1.23
2017-08-06T13:22:13.258Z,1.50
2017-08-06T13:24:40.713Z,1.60
2017-08-06T13:27:08.269Z,1.20
2017-08-06T13:29:35.724Z,1.60
2017-08-06T13:32:03.202Z,1.37
2017-08-06T13:34:30.653Z,1.57
2017-08-06T13:36:58.101Z,1.37
2017-08-06T13:39:25.554Z,1.20
2017-08-06T13:41:53.005Z,1.40
2017-08-06T13:44:20.456Z,1.50
2017-08-06T13:46:47.908Z,1.60
2017-08-06T13:49:15.381Z,1.60
2017-08-06T13:51:42.837Z,1.50
2017-08-06T13:54:10.295Z,1.47
2017-08-06T13:56:37.737Z,1.53
2017-08-06T13:59:05.192Z,1.60
2017-08-06T14:01:32.641Z,1.87
2017-08-06T14:04:00.093Z,1.40
2017-08-06T14:06:27.582Z,1.23
2017-08-06T14:08:55.147Z,1.20
2017-08-06T14:11:22.598Z,2.90
2017-08-06T14:13:50.063Z,1.70
2017-08-06T14:16:17.517Z,1.30
2017-08-06T14:18:44.978Z,1.17
2017-08-06T14:21:12.522Z,1.70
2017-08-06T14:23:39.982Z,3.60
2017-08-06T14:26:07.441Z,1.27
2017-08-06T14:28:34.899Z,1.50
2017-08-06T14:31:02.350Z,1.37
2017-08-06T14:33:29.796Z,1.10
2017-08-06T14:35:57.249Z,1.37
2017-08-06T14:38:24.698Z,1.27
2017-08-06T14:40:52.158Z,1.30
2017-08-06T14:43:19.601Z,2.03
2017-08-06T14:45:47.082Z,1.40
2017-08-06T14:48:14.538Z,2.80
2017-08-06T14:50:42.011Z,1.50
2017-08-06T14:53:09.445Z,1.20
2017-08-06T14:55:36.899Z,1.50
2017-08-06T14:58:04.362Z,1.33
2017-08-06T15:00:31.825Z,1.20
2017-08-06T15:02:59.382Z,1.27
2017-08-06T15:05:26.825Z,1.40
2017-08-06T15:07:54.304Z,1.20
2017-08-06T15:10:21.753Z,1.20
2017-08-06T15:12:49.210Z,1.30
2017-08-06T15:15:16.670Z,1.40
2017-08-06T15:17:44.113Z,1.30
2017-08-06T15:20:11.566Z,1.50
2017-08-06T15:22:39.015Z,1.27
2017-08-06T15:25:06.497Z,1.27
2017-08-06T15:27:33.938Z,1.40
2017-08-06T15:30:01.501Z,1.20
2017-08-06T15:32:28.939Z,1.00
2017-08-06T15:34:56.393Z,1.13
2017-08-06T15:37:23.883Z,1.30
2017-08-06T15:39:51.337Z,1.30
2017-08-06T15:42:18.807Z,1.20
2017-08-06T15:44:46.265Z,1.10
2017-08-06T15:47:14.514Z,1.13
2017-08-06T15:49:41.955Z,1.20
2017-08-06T15:52:10.298Z,1.20
2017-08-06T15:54:38.613Z,1.10
2017-08-06T15:57:06.067Z,1.10
2017-08-06T15:59:33.534Z,1.30
2017-08-06T16:02:01.096Z,1.30
2017-08-06T16:04:28.532Z,1.37
2017-08-06T16:06:55.988Z,1.30
2017-08-06T16:09:23.470Z,1.10
2017-08-06T16:11:50.927Z,1.47
2017-08-06T16:14:18.379Z,1.30
2017-08-06T16:16:45.844Z,1.30
2017-08-06T16:19:13.293Z,1.10
2017-08-06T16:21:40.858Z,1.40
2017-08-06T16:24:08.314Z,1.43
2017-08-06T16:26:35.765Z,1.10
2017-08-06T16:29:03.226Z,1.60
2017-08-06T16:31:30.670Z,1.20
2017-08-06T16:33:58.122Z,1.20
2017-08-06T16:36:25.583Z,1.10
2017-08-06T16:38:53.046Z,1.30
2017-08-06T16:41:20.497Z,1.23
2017-08-06T16:43:47.969Z,1.20
2017-08-06T16:46:15.414Z,1.50
2017-08-06T16:48:42.865Z,1.30
2017-08-06T16:51:10.334Z,1.23
2017-08-06T16:53:37.790Z,1.33
2017-08-06T16:56:05.250Z,1.40
2017-08-06T16:58:32.701Z,1.53
2017-08-06T17:01:00.147Z,1.50
2017-08-06T17:03:27.706Z,1.30
2017-08-06T17:05:55.164Z,1.53
2017-08-06T17:08:22.609Z,1.23
2017-08-06T17:10:50.065Z,1.50
2017-08-06T17:13:17.514Z,1.33
2017-08-06T17:15:44.974Z,1.57
2017-08-06T17:18:12.429Z,2.73
2017-08-06T17:20:39.905Z,1.30
2017-08-06T17:23:07.366Z,1.47
2017-08-06T17:25:34.826Z,1.50
2017-08-06T17:28:02.278Z,1.80
2017-08-06T17:30:29.732Z,1.77
2017-08-06T17:32:57.196Z,1.80
2017-08-06T17:35:24.640Z,1.40
2017-08-06T17:37:52.090Z,1.40
2017-08-06T17:40:19.544Z,1.60
2017-08-06T17:42:46.997Z,1.80
2017-08-06T17:45:14.445Z,1.50
2017-08-06T17:47:42.025Z,1.80
2017-08-06T17:50:09.586Z,1.63
2017-08-06T17:52:37.143Z,1.80
2017-08-06T17:55:04.693Z,1.50
2017-08-06T17:57:32.146Z,1.70
2017-08-06T17:59:59.602Z,1.80
2017-08-06T18:02:27.052Z,1.80
2017-08-06T18:04:54.506Z,1.60
2017-08-06T18:07:21.954Z,1.63
2017-08-06T18:09:49.448Z,1.67
2017-08-06T18:12:17.002Z,1.87
2017-08-06T18:14:44.470Z,2.03
2017-08-06T18:17:11.925Z,1.77
2017-08-06T18:19:39.389Z,2.07
2017-08-06T18:22:06.934Z,2.07
2017-08-06T18:24:34.403Z,2.00
2017-08-06T18:27:01.870Z,2.10
2017-08-06T18:29:29.325Z,2.33
2017-08-06T18:31:57.546Z,2.50
2017-08-06T18:34:24.998Z,2.10
2017-08-06T18:36:54.074Z,2.17
2017-08-06T18:39:21.522Z,2.33
2017-08-06T18:41:48.981Z,1.87
2017-08-06T18:44:16.497Z,1.60
2017-08-06T18:46:43.947Z,1.97
2017-08-06T18:49:11.510Z,2.60
2017-08-06T18:51:38.961Z,2.10
2017-08-06T18:54:06.440Z,1.97
2017-08-06T18:56:33.898Z,1.90
2017-08-06T18:59:01.435Z,1.80
2017-08-06T19:01:28.901Z,1.70
2017-08-06T19:03:56.351Z,2.13
2017-08-06T19:06:23.804Z,1.97
2017-08-06T19:08:51.252Z,1.47
2017-08-06T19:11:18.822Z,1.80
2017-08-06T19:13:46.320Z,1.90
2017-08-06T19:16:14.573Z,1.73
2017-08-06T19:18:42.983Z,2.43
2017-08-06T19:21:10.489Z,2.00
2017-08-06T19:23:37.949Z,2.07
2017-08-06T19:26:05.398Z,2.27
2017-08-06T19:28:32.860Z,2.13
2017-08-06T19:31:00.309Z,2.23
2017-08-06T19:33:27.765Z,2.00
2017-08-06T19:35:55.227Z,2.30
2017-08-06T19:38:22.699Z,1.90
2017-08-06T19:40:50.248Z,2.07
2017-08-06T19:43:17.706Z,2.10
2017-08-06T19:45:45.167Z,2.03
2017-08-06T19:48:12.617Z,1.87
2017-08-06T19:50:40.069Z,2.10
2017-08-06T19:53:07.642Z,2.00
2017-08-06T19:55:35.203Z,2.30
2017-08-06T19:58:02.658Z,2.60
2017-08-06T20:00:30.122Z,2.47
2017-08-06T20:02:57.573Z,2.27
2017-08-06T20:05:25.128Z,2.70
2017-08-06T20:07:52.581Z,2.57
2017-08-06T20:10:20.051Z,2.23
2017-08-06T20:12:48.304Z,2.00
2017-08-06T20:15:15.777Z,2.60
2017-08-06T20:17:43.223Z,2.10
2017-08-06T20:20:10.681Z,2.30
2017-08-06T20:22:38.189Z,2.13
2017-08-06T20:25:05.628Z,3.13
2017-08-06T20:27:33.090Z,2.43
2017-08-06T20:30:00.541Z,2.10
2017-08-06T20:32:28.006Z,2.43
2017-08-06T20:34:55.522Z,2.40
2017-08-06T20:37:22.984Z,2.50
2017-08-06T20:39:50.531Z,2.50
2017-08-06T20:42:18.094Z,2.27
2017-08-06T20:44:45.563Z,1.90
2017-08-06T20:47:13.817Z,2.93
2017-08-06T20:49:41.275Z,2.10
2017-08-06T20:52:08.713Z,2.40
2017-08-06T20:54:36.182Z,2.07
2017-08-06T20:57:03.638Z,2.50
2017-08-06T20:59:31.214Z,2.57
2017-08-06T21:01:58.666Z,2.27
2017-08-06T21:04:26.222Z,2.90
2017-08-06T21:06:53.684Z,2.53
2017-08-06T21:09:21.142Z,2.43
2017-08-06T21:11:48.548Z,2.50
2017-08-06T21:14:16.043Z,2.53
2017-08-06T21:16:43.502Z,2.90
2017-08-06T21:19:10.981Z,3.60
2017-08-06T21:21:39.197Z,3.43
2017-08-06T21:24:06.756Z,3.60
2017-08-06T21:26:34.202Z,3.33
2017-08-06T21:29:01.658Z,3.07
2017-08-06T21:31:29.165Z,4.20
2017-08-06T21:33:56.720Z,3.90
2017-08-06T21:36:24.177Z,3.13
2017-08-06T21:38:51.630Z,2.87
2017-08-06T21:41:19.181Z,3.40
2017-08-06T21:43:46.634Z,2.90
2017-08-06T21:46:14.213Z,2.90
2017-08-06T21:48:41.658Z,3.53
2017-08-06T21:51:09.109Z,3.20
2017-08-06T21:53:36.645Z,2.80
2017-08-06T21:56:04.118Z,2.60
2017-08-06T21:58:31.581Z,4.90
2017-08-06T22:02:35.862Z,4.37
2017-08-06T22:05:03.375Z,4.27
2017-08-06T22:07:30.838Z,5.07
2017-08-06T22:09:58.388Z,3.80
2017-08-06T22:12:25.850Z,4.20
2017-08-06T22:14:53.398Z,4.20
2017-08-06T22:17:20.953Z,3.53
2017-08-06T22:19:48.407Z,4.33
2017-08-06T22:22:15.875Z,4.13
2017-08-06T22:24:43.325Z,3.93
2017-08-06T22:27:10.888Z,3.80
2017-08-06T22:29:38.349Z,3.23
2017-08-06T22:32:05.806Z,4.30
2017-08-06T22:34:33.262Z,4.27
2017-08-06T22:37:00.721Z,4.57
2017-08-06T22:39:28.198Z,4.30
2017-08-06T22:41:55.666Z,4.00
2017-08-06T22:44:23.877Z,4.40
2017-08-06T22:46:51.345Z,4.27
2017-08-06T22:49:18.881Z,3.80
2017-08-06T22:51:46.344Z,4.60
2017-08-06T22:54:13.807Z,3.87
2017-08-06T22:56:41.260Z,4.10
2017-08-06T22:59:08.738Z,3.90
2017-08-06T23:01:36.221Z,3.37
2017-08-06T23:04:04.473Z,4.30
2017-08-06T23:06:31.928Z,3.83
2017-08-06T23:08:59.385Z,4.27
2017-08-06T23:11:26.847Z,4.20
2017-08-06T23:13:54.301Z,3.83
2017-08-06T23:16:21.766Z,3.20
2017-08-06T23:18:49.222Z,3.60
2017-08-06T23:21:16.678Z,4.37
2017-08-06T23:23:44.130Z,4.03
2017-08-06T23:26:11.592Z,3.37
2017-08-06T23:28:39.055Z,3.97
2017-08-06T23:31:06.510Z,3.73
2017-08-06T23:33:34.746Z,4.30
2017-08-06T23:36:02.234Z,3.90
2017-08-06T23:38:29.694Z,3.60
2017-08-06T23:40:57.165Z,3.70
2017-08-06T23:43:25.384Z,3.63
2017-08-06T23:45:52.862Z,3.00
2017-08-06T23:48:20.293Z,3.40
2017-08-06T23:50:47.762Z,3.10
2017-08-06T23:53:15.218Z,3.47
2017-08-06T23:55:42.674Z,3.50
2017-08-06T23:58:10.153Z,2.60
